createdAt,value
2022-12-06T00:01:43.062Z,5.76
2022-12-06T00:04:15.749Z,5.76
2022-12-06T00:06:48.131Z,5.80
2022-12-06T00:09:22.658Z,5.82
2022-12-06T00:11:52.783Z,5.77
2022-12-06T00:14:22.141Z,5.81
2022-12-06T00:16:51.960Z,5.83
2022-12-06T00:19:24.398Z,5.84
2022-12-06T00:21:54.427Z,5.86
2022-12-06T00:24:25.028Z,5.87
2022-12-06T00:26:53.846Z,5.85
2022-12-06T00:29:24.901Z,5.87
2022-12-06T00:31:53.878Z,5.87
2022-12-06T00:34:22.751Z,5.88
2022-12-06T00:36:51.454Z,5.84
2022-12-06T00:39:20.274Z,5.85
2022-12-06T00:41:50.395Z,5.85
2022-12-06T00:44:19.113Z,5.84
2022-12-06T00:46:47.931Z,5.82
2022-12-06T00:49:16.725Z,5.84
2022-12-06T00:51:45.502Z,5.84
2022-12-06T00:54:16.639Z,5.87
2022-12-06T00:56:45.617Z,5.87
2022-12-06T00:59:15.830Z,5.88
2022-12-06T01:01:44.633Z,5.88
2022-12-06T01:04:13.448Z,5.87
2022-12-06T01:06:42.160Z,5.89
2022-12-06T01:09:12.156Z,5.90
2022-12-06T01:11:41.214Z,5.90
2022-12-06T01:14:37.864Z,5.90
2022-12-06T01:17:06.615Z,5.89
2022-12-06T01:19:35.380Z,5.90
2022-12-06T01:22:04.131Z,5.90
2022-12-06T01:24:32.984Z,5.85
2022-12-06T01:27:01.670Z,5.87
2022-12-06T01:29:30.399Z,5.88
2022-12-06T01:32:00.581Z,5.87
2022-12-06T01:34:29.341Z,5.90
2022-12-06T01:36:58.018Z,5.88
2022-12-06T01:39:26.832Z,5.81
2022-12-06T01:41:55.693Z,5.83
2022-12-06T01:44:46.971Z,5.80
2022-12-06T01:47:22.340Z,5.80
2022-12-06T01:49:56.771Z,5.80
2022-12-06T01:52:32.723Z,5.76
2022-12-06T01:55:03.906Z,5.75
2022-12-06T01:57:32.926Z,5.79
2022-12-06T02:00:02.723Z,5.80
2022-12-06T02:02:40.770Z,5.82
2022-12-06T02:05:10.962Z,5.83
2022-12-06T02:07:40.977Z,5.75
2022-12-06T02:10:11.591Z,5.72
2022-12-06T02:12:40.599Z,5.72
2022-12-06T02:15:11.295Z,5.75
2022-12-06T02:17:49.695Z,5.77
2022-12-06T02:20:28.669Z,5.79
2022-12-06T02:23:46.710Z,5.73
2022-12-06T02:26:40.531Z,5.75
2022-12-06T02:29:46.064Z,5.77
2022-12-06T02:32:22.522Z,5.80
2022-12-06T02:35:00.621Z,5.75
2022-12-06T02:37:38.100Z,5.68
2022-12-06T02:40:13.582Z,5.54
2022-12-06T02:42:51.136Z,5.41
2022-12-06T02:45:28.055Z,5.49
2022-12-06T02:48:03.832Z,5.55
2022-12-06T02:50:39.747Z,5.62
2022-12-06T02:53:14.206Z,5.60
2022-12-06T02:55:45.283Z,5.58
2022-12-06T02:58:14.003Z,5.65
2022-12-06T03:00:45.471Z,5.57
2022-12-06T03:03:57.164Z,5.63
2022-12-06T03:07:13.901Z,5.45
2022-12-06T03:10:00.022Z,5.48
2022-12-06T03:12:41.352Z,5.55
2022-12-06T03:15:17.715Z,5.63
2022-12-06T03:17:53.626Z,5.65
2022-12-06T03:20:30.114Z,5.62
2022-12-06T03:23:05.590Z,5.64
2022-12-06T03:25:37.326Z,5.43
2022-12-06T03:28:10.467Z,5.49
2022-12-06T03:30:42.480Z,5.58
2022-12-06T03:33:14.200Z,5.60
2022-12-06T03:35:48.241Z,5.47
2022-12-06T03:38:25.970Z,5.52
2022-12-06T03:41:02.600Z,5.54
2022-12-06T03:43:31.739Z,5.63
2022-12-06T03:46:08.550Z,5.69
2022-12-06T03:48:44.012Z,5.70
2022-12-06T03:51:19.537Z,5.73
2022-12-06T03:53:50.798Z,5.74
2022-12-06T03:56:19.864Z,5.75
2022-12-06T03:58:48.715Z,5.76
2022-12-06T04:01:18.816Z,5.63
2022-12-06T04:03:48.067Z,5.51
2022-12-06T04:06:18.573Z,5.53
2022-12-06T04:08:49.402Z,5.60
2022-12-06T04:11:18.099Z,5.64
2022-12-06T04:13:46.869Z,5.57
2022-12-06T04:16:34.257Z,5.56
2022-12-06T04:19:02.989Z,5.57
2022-12-06T04:21:50.510Z,5.45
2022-12-06T04:24:20.148Z,5.52
2022-12-06T04:26:48.913Z,5.37
2022-12-06T04:29:35.273Z,5.33
2022-12-06T04:32:21.450Z,5.32
2022-12-06T04:35:07.882Z,5.32
2022-12-06T04:37:55.451Z,5.35
2022-12-06T04:40:24.174Z,5.28
2022-12-06T04:43:06.748Z,5.23
2022-12-06T04:45:35.454Z,5.07
2022-12-06T04:48:04.256Z,5.20
2022-12-06T04:50:34.022Z,5.22
2022-12-06T04:53:04.155Z,5.32
2022-12-06T04:55:32.927Z,5.32
2022-12-06T04:58:01.622Z,5.29
2022-12-06T05:00:30.436Z,5.23
2022-12-06T05:02:59.284Z,5.10
2022-12-06T05:05:28.097Z,5.10
2022-12-06T05:07:56.897Z,5.10
2022-12-06T05:10:27.203Z,5.12
2022-12-06T05:12:56.188Z,5.24
2022-12-06T05:15:29.009Z,5.17
2022-12-06T05:17:58.373Z,5.11
2022-12-06T05:20:27.488Z,5.07
2022-12-06T05:22:56.203Z,5.04
2022-12-06T05:25:29.720Z,5.02
2022-12-06T05:27:58.733Z,4.95
2022-12-06T05:30:27.514Z,4.99
2022-12-06T05:32:57.186Z,4.99
2022-12-06T05:35:25.983Z,4.96
2022-12-06T05:37:55.671Z,5.07
2022-12-06T05:40:24.600Z,5.14
2022-12-06T05:42:54.745Z,5.23
2022-12-06T05:45:23.842Z,5.25
2022-12-06T05:47:57.808Z,5.30
2022-12-06T05:50:26.616Z,5.35
2022-12-06T05:52:55.640Z,5.40
2022-12-06T05:55:24.438Z,5.42
2022-12-06T05:57:55.537Z,5.47
2022-12-06T06:00:24.468Z,5.49
2022-12-06T06:02:53.301Z,5.51
2022-12-06T06:05:22.964Z,5.47
2022-12-06T06:07:52.253Z,5.45
2022-12-06T06:10:21.461Z,5.48
2022-12-06T06:12:50.569Z,5.51
2022-12-06T06:15:21.062Z,5.50
2022-12-06T06:17:49.772Z,5.47
2022-12-06T06:20:18.635Z,5.45
2022-12-06T06:22:47.340Z,5.45
2022-12-06T06:25:16.209Z,5.50
2022-12-06T06:27:44.933Z,5.46
2022-12-06T06:30:15.084Z,5.33
2022-12-06T06:32:45.401Z,5.40
2022-12-06T06:35:14.161Z,5.42
2022-12-06T06:37:42.857Z,5.45
2022-12-06T06:40:12.492Z,5.49
2022-12-06T06:42:41.383Z,5.51
2022-12-06T06:45:11.372Z,5.52
2022-12-06T06:47:40.159Z,5.53
2022-12-06T06:50:11.192Z,5.54
2022-12-06T06:52:39.871Z,5.46
2022-12-06T06:55:09.827Z,5.47
2022-12-06T06:57:41.089Z,5.32
2022-12-06T07:00:11.528Z,5.39
2022-12-06T07:02:40.325Z,5.40
2022-12-06T07:05:11.167Z,5.41
2022-12-06T07:07:40.154Z,5.41
2022-12-06T07:10:10.600Z,5.38
2022-12-06T07:12:39.421Z,5.45
2022-12-06T07:15:09.782Z,5.41
2022-12-06T07:17:38.565Z,5.44
2022-12-06T07:20:10.979Z,5.36
2022-12-06T07:22:39.826Z,5.41
2022-12-06T07:25:09.631Z,5.42
2022-12-06T07:27:38.439Z,5.41
2022-12-06T07:30:12.162Z,5.31
2022-12-06T07:32:43.232Z,5.31
2022-12-06T07:35:13.457Z,5.38
2022-12-06T07:37:44.179Z,5.26
2022-12-06T07:40:15.547Z,5.27
2022-12-06T07:43:01.757Z,5.32
2022-12-06T07:45:30.800Z,5.28
2022-12-06T07:47:59.654Z,5.31
2022-12-06T07:50:29.803Z,5.19
2022-12-06T07:53:00.366Z,5.02
2022-12-06T07:55:29.103Z,4.83
2022-12-06T07:57:57.838Z,4.80
2022-12-06T08:00:26.849Z,4.92
2022-12-06T08:02:55.565Z,4.99
2022-12-06T08:05:24.366Z,4.94
2022-12-06T08:07:54.660Z,4.99
2022-12-06T08:10:23.446Z,5.09
2022-12-06T08:12:52.182Z,5.18
2022-12-06T08:15:20.898Z,5.21
2022-12-06T08:17:49.664Z,5.26
2022-12-06T08:20:18.660Z,5.23
2022-12-06T08:22:47.433Z,5.09
2022-12-06T08:25:17.769Z,5.18
2022-12-06T08:27:46.522Z,5.25
2022-12-06T08:30:15.811Z,5.20
2022-12-06T08:32:44.679Z,5.18
2022-12-06T08:35:13.438Z,5.10
2022-12-06T08:37:42.201Z,5.08
2022-12-06T08:40:11.956Z,5.19
2022-12-06T08:42:43.540Z,5.23
2022-12-06T08:45:13.076Z,5.25
2022-12-06T08:47:41.841Z,5.25
2022-12-06T08:50:11.409Z,5.30
2022-12-06T08:52:40.216Z,5.34
2022-12-06T08:55:10.066Z,5.37
2022-12-06T08:57:38.768Z,5.36
2022-12-06T09:00:11.743Z,5.23
2022-12-06T09:02:41.159Z,5.17
2022-12-06T09:05:11.066Z,5.10
2022-12-06T09:07:39.901Z,5.05
2022-12-06T09:10:10.441Z,5.04
2022-12-06T09:12:39.179Z,5.05
2022-12-06T09:15:11.007Z,5.01
2022-12-06T09:17:39.787Z,5.05
2022-12-06T09:20:10.280Z,4.91
2022-12-06T09:22:39.065Z,4.86
2022-12-06T09:25:08.579Z,4.91
2022-12-06T09:27:37.371Z,4.93
2022-12-06T09:30:09.551Z,5.03
2022-12-06T09:32:38.345Z,5.11
2022-12-06T09:35:13.868Z,5.05
2022-12-06T09:37:45.116Z,5.06
2022-12-06T09:40:25.045Z,5.13
2022-12-06T09:43:10.551Z,5.12
2022-12-06T09:46:11.419Z,5.08
2022-12-06T09:49:10.230Z,5.05
2022-12-06T09:51:57.846Z,5.01
2022-12-06T09:54:55.889Z,5.04
2022-12-06T09:57:42.676Z,5.04
2022-12-06T10:00:22.246Z,5.07
2022-12-06T10:03:29.169Z,5.06
2022-12-06T10:06:05.489Z,5.01
2022-12-06T10:08:54.952Z,4.89
2022-12-06T10:11:44.711Z,4.93
2022-12-06T10:14:34.193Z,4.87
2022-12-06T10:17:12.459Z,4.81
2022-12-06T10:19:56.265Z,4.80
2022-12-06T10:22:47.274Z,4.80
2022-12-06T10:25:24.930Z,4.77
2022-12-06T10:28:09.970Z,4.74
2022-12-06T10:30:53.348Z,4.75
2022-12-06T10:33:38.274Z,4.74
2022-12-06T10:36:13.589Z,4.63
2022-12-06T10:38:52.781Z,4.69
2022-12-06T10:41:30.100Z,4.57
2022-12-06T10:44:08.369Z,4.58
2022-12-06T10:47:05.114Z,4.62
2022-12-06T10:49:45.842Z,4.54
2022-12-06T10:52:27.205Z,4.49
2022-12-06T10:55:15.559Z,4.57
2022-12-06T10:57:53.069Z,4.56
2022-12-06T11:00:24.753Z,4.58
2022-12-06T11:03:04.178Z,4.59
2022-12-06T11:05:42.068Z,4.65
2022-12-06T11:08:17.890Z,4.67
2022-12-06T11:10:48.841Z,4.56
2022-12-06T11:13:27.561Z,4.45
2022-12-06T11:16:04.726Z,4.56
2022-12-06T11:18:35.027Z,4.60
2022-12-06T11:21:15.332Z,4.57
2022-12-06T11:23:57.532Z,4.56
2022-12-06T11:26:39.332Z,4.60
2022-12-06T11:29:14.331Z,4.64
2022-12-06T11:31:48.007Z,4.75
2022-12-06T11:34:23.520Z,4.77
2022-12-06T11:36:59.884Z,4.77
2022-12-06T11:39:32.777Z,4.74
2022-12-06T11:42:05.619Z,4.71
2022-12-06T11:44:46.421Z,4.85
2022-12-06T11:47:22.047Z,4.74
2022-12-06T11:49:53.857Z,4.75
2022-12-06T11:52:31.836Z,4.78
2022-12-06T11:55:08.475Z,4.69
2022-12-06T11:57:47.431Z,4.62
2022-12-06T12:00:20.651Z,4.70
2022-12-06T12:02:53.456Z,4.66
2022-12-06T12:05:26.364Z,4.76
2022-12-06T12:08:00.287Z,4.89
2022-12-06T12:10:35.868Z,4.76
2022-12-06T12:13:39.917Z,4.82
2022-12-06T12:16:19.528Z,4.69
2022-12-06T12:18:58.260Z,4.74
2022-12-06T12:21:42.538Z,4.78
2022-12-06T12:27:46.896Z,4.62
2022-12-06T12:30:39.308Z,4.50
2022-12-06T12:33:22.024Z,4.55
2022-12-06T12:35:55.345Z,4.55
2022-12-06T12:38:42.283Z,4.64
2022-12-06T12:41:32.544Z,4.63
2022-12-06T12:44:35.847Z,4.64
2022-12-06T12:46:59.423Z,4.69
2022-12-06T12:49:35.051Z,4.62
2022-12-06T12:52:28.379Z,4.61
2022-12-06T12:55:02.648Z,4.63
2022-12-06T12:57:31.730Z,4.66
2022-12-06T13:00:02.109Z,4.76
2022-12-06T13:02:36.236Z,4.69
2022-12-06T13:05:32.469Z,4.60
2022-12-06T13:10:43.335Z,4.71
2022-12-06T13:13:18.284Z,4.68
2022-12-06T13:15:50.123Z,4.76
2022-12-06T13:18:25.709Z,4.80
2022-12-06T13:20:59.130Z,4.67
2022-12-06T13:23:34.001Z,4.65
2022-12-06T13:26:18.063Z,4.63
2022-12-06T13:28:54.875Z,4.62
2022-12-06T13:31:34.143Z,4.56
2022-12-06T13:34:16.925Z,4.42
2022-12-06T13:36:46.715Z,4.52
2022-12-06T13:39:40.860Z,4.58
2022-12-06T13:42:43.656Z,4.58
2022-12-06T13:45:42.346Z,4.45
2022-12-06T13:48:39.787Z,4.45
2022-12-06T13:51:13.708Z,4.44
2022-12-06T13:54:37.546Z,4.28
2022-12-06T13:57:34.912Z,4.29
2022-12-06T14:00:04.193Z,4.20
2022-12-06T14:02:47.055Z,4.28
2022-12-06T14:08:35.674Z,4.32
2022-12-06T14:11:25.110Z,4.37
2022-12-06T14:14:09.186Z,4.44
2022-12-06T14:16:43.910Z,4.40
2022-12-06T14:19:21.276Z,4.32
2022-12-06T14:21:57.764Z,4.35
2022-12-06T14:24:34.561Z,4.35
2022-12-06T14:27:12.383Z,4.33
2022-12-06T14:29:44.499Z,4.41
2022-12-06T14:32:13.553Z,4.29
2022-12-06T14:34:42.350Z,4.33
2022-12-06T14:37:22.960Z,4.37
2022-12-06T14:39:54.261Z,4.36
2022-12-06T14:42:41.225Z,4.34
2022-12-06T14:45:17.566Z,4.33
2022-12-06T14:47:47.199Z,4.34
2022-12-06T14:50:34.363Z,4.37
2022-12-06T14:53:08.376Z,4.30
2022-12-06T14:55:39.812Z,4.18
2022-12-06T14:58:26.571Z,4.16
2022-12-06T15:01:18.564Z,4.22
2022-12-06T15:03:59.947Z,4.20
2022-12-06T15:06:33.249Z,4.21
2022-12-06T15:09:15.745Z,4.14
2022-12-06T15:12:02.883Z,4.22
2022-12-06T15:14:51.139Z,4.24
2022-12-06T15:17:26.070Z,4.28
2022-12-06T15:19:55.545Z,4.24
2022-12-06T15:22:29.525Z,4.26
2022-12-06T15:25:00.403Z,4.08
2022-12-06T15:27:29.269Z,4.18
2022-12-06T15:29:58.133Z,4.15
2022-12-06T15:32:28.932Z,4.26
2022-12-06T15:34:58.107Z,4.24
2022-12-06T15:37:47.435Z,4.21
2022-12-06T15:40:17.017Z,4.23
2022-12-06T15:42:45.834Z,4.06
2022-12-06T15:45:17.333Z,4.08
2022-12-06T15:47:49.759Z,4.13
2022-12-06T15:50:19.522Z,4.18
2022-12-06T15:52:48.573Z,4.27
2022-12-06T15:55:19.799Z,4.32
2022-12-06T15:57:48.642Z,4.14
2022-12-06T16:00:18.791Z,4.10
2022-12-06T16:02:49.886Z,4.12
2022-12-06T16:05:20.050Z,4.16
2022-12-06T16:07:49.767Z,4.01
2022-12-06T16:10:22.569Z,4.02
2022-12-06T16:13:11.041Z,4.17
2022-12-06T16:15:39.953Z,4.15
2022-12-06T16:18:10.427Z,4.23
2022-12-06T16:20:41.155Z,4.19
2022-12-06T16:24:04.209Z,4.24
2022-12-06T16:26:22.992Z,4.27
2022-12-06T16:28:51.766Z,4.34
2022-12-06T16:31:23.230Z,4.35
2022-12-06T16:33:57.863Z,4.19
2022-12-06T16:36:30.835Z,4.13
2022-12-06T16:39:04.758Z,4.17
2022-12-06T16:41:37.273Z,4.23
2022-12-06T16:44:06.728Z,4.25
2022-12-06T16:46:37.446Z,4.26
2022-12-06T16:52:08.390Z,4.18
2022-12-06T16:54:42.017Z,4.17
2022-12-06T16:57:12.911Z,4.14
2022-12-06T16:59:48.077Z,4.06
2022-12-06T17:02:29.607Z,4.12
2022-12-06T17:05:03.195Z,4.15
2022-12-06T17:07:39.152Z,4.17
2022-12-06T17:10:09.787Z,4.13
2022-12-06T17:12:38.686Z,4.15
2022-12-06T17:15:13.388Z,3.94
2022-12-06T17:17:42.663Z,3.95
2022-12-06T17:20:17.561Z,3.98
2022-12-06T17:22:46.845Z,4.02
2022-12-06T17:25:17.515Z,3.97
2022-12-06T17:27:46.659Z,3.78
2022-12-06T17:30:18.606Z,3.84
2022-12-06T17:32:48.801Z,3.80
2022-12-06T17:35:19.207Z,3.86
2022-12-06T17:37:47.953Z,3.85
2022-12-06T17:40:17.276Z,3.80
2022-12-06T17:43:00.159Z,3.82
2022-12-06T17:45:29.178Z,3.83
2022-12-06T17:48:23.869Z,3.80
2022-12-06T17:50:55.536Z,3.79
2022-12-06T17:53:31.166Z,3.66
2022-12-06T17:56:39.535Z,3.61
2022-12-06T17:59:13.922Z,3.54
2022-12-06T18:02:13.677Z,3.60
2022-12-06T18:04:37.691Z,3.59
2022-12-06T18:07:16.386Z,3.58
2022-12-06T18:09:49.722Z,3.63
2022-12-06T18:12:22.422Z,3.76
2022-12-06T18:14:56.599Z,3.75
2022-12-06T18:17:28.388Z,3.71
2022-12-06T18:21:14.626Z,3.71
2022-12-06T18:24:13.123Z,3.77
2022-12-06T18:26:37.100Z,3.81
2022-12-06T18:29:09.394Z,3.64
2022-12-06T18:31:42.321Z,3.73
2022-12-06T18:34:13.566Z,3.78
2022-12-06T18:36:43.328Z,3.78
2022-12-06T18:39:24.256Z,3.74
2022-12-06T18:41:56.454Z,3.62
2022-12-06T18:44:27.436Z,3.62
2022-12-06T18:46:57.085Z,3.55
2022-12-06T18:49:30.789Z,3.61
2022-12-06T18:52:08.037Z,3.62
2022-12-06T18:54:39.545Z,3.60
2022-12-06T18:57:08.775Z,3.68
2022-12-06T18:59:38.470Z,3.70
2022-12-06T19:02:16.498Z,3.68
2022-12-06T19:04:47.618Z,3.69
2022-12-06T19:07:23.669Z,3.78
2022-12-06T19:09:56.376Z,3.68
2022-12-06T19:12:25.192Z,3.61
2022-12-06T19:15:00.396Z,3.57
2022-12-06T19:17:29.648Z,3.60
2022-12-06T19:19:58.717Z,3.62
2022-12-06T19:22:28.019Z,3.61
2022-12-06T19:25:08.008Z,3.67
2022-12-06T19:27:37.545Z,3.70
2022-12-06T19:30:08.828Z,3.63
2022-12-06T19:32:38.135Z,3.57
2022-12-06T19:36:23.717Z,3.62
2022-12-06T19:38:57.638Z,3.61
2022-12-06T19:41:28.871Z,3.66
2022-12-06T19:44:17.755Z,3.66
2022-12-06T19:46:55.009Z,3.61
2022-12-06T19:49:27.829Z,3.66
2022-12-06T19:52:13.908Z,3.74
2022-12-06T19:54:46.354Z,3.72
2022-12-06T19:57:19.519Z,3.71
2022-12-06T19:59:48.304Z,3.65
2022-12-06T20:02:17.365Z,3.64
2022-12-06T20:04:59.764Z,3.62
2022-12-06T20:07:28.850Z,3.59
2022-12-06T20:09:58.254Z,3.61
2022-12-06T20:12:28.931Z,3.63
2022-12-06T20:14:57.824Z,3.56
2022-12-06T20:17:26.828Z,3.58
2022-12-06T20:19:57.024Z,3.69
2022-12-06T20:22:26.182Z,3.70
2022-12-06T20:24:55.076Z,3.71
2022-12-06T20:27:44.093Z,3.60
2022-12-06T20:30:18.835Z,3.68
2022-12-06T20:32:51.304Z,3.59
2022-12-06T20:35:20.196Z,3.57
2022-12-06T20:37:52.291Z,3.63
2022-12-06T20:40:23.555Z,3.67
2022-12-06T20:42:56.102Z,3.70
2022-12-06T20:45:26.734Z,3.67
2022-12-06T20:47:55.566Z,3.67
2022-12-06T20:50:27.913Z,3.64
2022-12-06T20:52:56.702Z,3.59
2022-12-06T20:55:27.703Z,3.45
2022-12-06T20:57:56.616Z,3.46
2022-12-06T21:00:27.316Z,3.38
2022-12-06T21:02:56.778Z,3.34
2022-12-06T21:05:25.706Z,3.32
2022-12-06T21:09:15.453Z,3.31
2022-12-06T21:11:44.680Z,3.24
2022-12-06T21:14:16.189Z,3.28
2022-12-06T21:16:47.428Z,3.35
2022-12-06T21:19:20.026Z,3.35
2022-12-06T21:21:57.193Z,3.40
2022-12-06T21:24:26.025Z,3.43
2022-12-06T21:26:54.965Z,3.43
2022-12-06T21:29:30.607Z,3.48
2022-12-06T21:32:02.517Z,3.54
2022-12-06T21:34:31.348Z,3.59
2022-12-06T21:41:21.644Z,3.59
2022-12-06T21:43:49.599Z,3.62
2022-12-06T21:46:21.744Z,3.52
2022-12-06T21:48:52.821Z,3.61
2022-12-06T21:51:22.996Z,3.56
2022-12-06T21:53:52.783Z,3.59
2022-12-06T21:56:29.503Z,3.60
2022-12-06T21:59:01.194Z,3.68
2022-12-06T22:01:32.839Z,3.69
2022-12-06T22:04:04.742Z,3.65
2022-12-06T22:06:35.842Z,3.55
2022-12-06T22:09:07.074Z,3.64
2022-12-06T22:11:38.081Z,3.67
2022-12-06T22:14:09.910Z,3.64
2022-12-06T22:16:39.949Z,3.70
2022-12-06T22:19:09.507Z,3.60
2022-12-06T22:21:38.517Z,3.63
2022-12-06T22:24:08.428Z,3.70
2022-12-06T22:26:38.770Z,3.61
2022-12-06T22:29:07.618Z,3.61
2022-12-06T22:31:37.280Z,3.54
2022-12-06T22:34:06.833Z,3.53
2022-12-06T22:36:35.706Z,3.42
2022-12-06T22:39:06.590Z,3.37
2022-12-06T22:41:37.220Z,3.47
2022-12-06T22:44:08.333Z,3.46
2022-12-06T22:46:38.075Z,3.48
2022-12-06T22:49:07.535Z,3.49
2022-12-06T22:51:40.463Z,3.53
2022-12-06T22:54:13.302Z,3.37
2022-12-06T22:56:48.833Z,3.31
2022-12-06T22:59:20.916Z,3.21
2022-12-06T23:01:49.668Z,3.23
2022-12-06T23:04:18.517Z,3.26
2022-12-06T23:06:47.317Z,3.29
2022-12-06T23:09:17.611Z,3.35
2022-12-06T23:11:47.848Z,3.36
2022-12-06T23:14:16.670Z,3.37
2022-12-06T23:16:45.596Z,3.32
2022-12-06T23:19:14.418Z,3.31
2022-12-06T23:21:43.251Z,3.30
2022-12-06T23:24:16.326Z,3.34
2022-12-06T23:26:51.992Z,3.33
2022-12-06T23:29:24.980Z,3.38
2022-12-06T23:31:53.786Z,3.38
2022-12-06T23:34:26.766Z,3.27
2022-12-06T23:36:57.301Z,3.27
2022-12-06T23:39:26.227Z,3.17
2022-12-06T23:41:56.681Z,3.19
2022-12-06T23:44:25.477Z,3.16
2022-12-06T23:46:54.472Z,3.18
2022-12-06T23:49:23.899Z,3.27
2022-12-06T23:51:53.170Z,3.30
2022-12-06T23:54:21.892Z,3.44
2022-12-06T23:56:50.596Z,3.40
2022-12-06T23:59:20.835Z,3.32
